Terminal Aerodrome Forecast
Issued by NWS North Platte, NE

Home | Current Version | Previous Version | Graphics & Text | Print | Product List | Glossary On
Versions: 1 2 3 4 5 6 7 8 9 10 11 12 13 14 15 16 17 18 19 20 21 22 23 24 25 26
000
FTUS43 KLBF 182100 AAA
TAFVTN
TAF AMD
KVTN 182105Z 1821/1918 23007KT P6SM SCT010
      TEMPO 1821/1822 6SM BR BKN010
     FM190100 VRB04KT 3SM BR SCT150
     FM191400 24006KT 5SM BR SCT150
     FM191600 24006KT P6SM SCT150=

USA.gov is the U.S. government's official web portal to all federal, state and local government web resources and services.